sensor_id;sensor_type;location;lat;lon;timestamp;P1;durP1;ratioP1;P2;durP2;ratioP2
595;SDS011;19946;49.306;11.350;2023-07-13T00:01:05;0.00;;;0.00;;
595;SDS011;19946;49.306;11.350;2023-07-13T00:04:06;0.00;;;0.00;;
595;SDS011;19946;49.306;11.350;2023-07-13T00:07:07;0.10;;;0.10;;
595;SDS011;19946;49.306;11.350;2023-07-13T00:10:08;0.10;;;0.10;;
595;SDS011;19946;49.306;11.350;2023-07-13T00:13:09;0.00;;;0.00;;
595;SDS011;19946;49.306;11.350;2023-07-13T00:16:10;0.00;;;0.00;;
595;SDS011;19946;49.306;11.350;2023-07-13T00:19:12;0.00;;;0.00;;
595;SDS011;19946;49.306;11.350;2023-07-13T00:22:13;0.00;;;0.00;;
595;SDS011;19946;49.306;11.350;2023-07-13T00:25:13;0.00;;;0.00;;
595;SDS011;19946;49.306;11.350;2023-07-13T00:28:13;0.00;;;0.00;;
595;SDS011;19946;49.306;11.350;2023-07-13T00:31:14;0.10;;;0.10;;
595;SDS011;19946;49.306;11.350;2023-07-13T00:34:14;0.00;;;0.00;;
595;SDS011;19946;49.306;11.350;2023-07-13T00:37:14;0.00;;;0.00;;
595;SDS011;19946;49.306;11.350;2023-07-13T00:40:15;0.10;;;0.10;;
595;SDS011;19946;49.306;11.350;2023-07-13T00:43:18;0.10;;;0.10;;
595;SDS011;19946;49.306;11.350;2023-07-13T00:46:25;0.10;;;0.10;;
595;SDS011;19946;49.306;11.350;2023-07-13T00:49:30;0.10;;;0.10;;
595;SDS011;19946;49.306;11.350;2023-07-13T00:52:33;0.10;;;0.10;;
595;SDS011;19946;49.306;11.350;2023-07-13T00:55:36;0.10;;;0.10;;
595;SDS011;19946;49.306;11.350;2023-07-13T00:58:37;0.10;;;0.10;;
595;SDS011;19946;49.306;11.350;2023-07-13T01:01:38;0.10;;;0.10;;
595;SDS011;19946;49.306;11.350;2023-07-13T01:04:39;0.10;;;0.10;;
595;SDS011;19946;49.306;11.350;2023-07-13T01:07:40;0.30;;;0.30;;
595;SDS011;19946;49.306;11.350;2023-07-13T01:10:50;0.20;;;0.20;;
595;SDS011;19946;49.306;11.350;2023-07-13T01:13:55;0.30;;;0.30;;
595;SDS011;19946;49.306;11.350;2023-07-13T01:16:55;0.30;;;0.30;;
595;SDS011;19946;49.306;11.350;2023-07-13T01:19:56;0.10;;;0.10;;
595;SDS011;19946;49.306;11.350;2023-07-13T01:22:57;0.10;;;0.10;;
595;SDS011;19946;49.306;11.350;2023-07-13T01:25:59;0.10;;;0.10;;
595;SDS011;19946;49.306;11.350;2023-07-13T01:29:00;0.10;;;0.10;;
595;SDS011;19946;49.306;11.350;2023-07-13T01:32:00;0.10;;;0.10;;
595;SDS011;19946;49.306;11.350;2023-07-13T01:35:01;0.10;;;0.10;;
595;SDS011;19946;49.306;11.350;2023-07-13T01:38:01;0.10;;;0.10;;
595;SDS011;19946;49.306;11.350;2023-07-13T01:41:03;0.10;;;0.10;;
595;SDS011;19946;49.306;11.350;2023-07-13T01:44:03;0.10;;;0.10;;
595;SDS011;19946;49.306;11.350;2023-07-13T01:47:05;0.20;;;0.20;;
595;SDS011;19946;49.306;11.350;2023-07-13T01:50:05;0.20;;;0.20;;
595;SDS011;19946;49.306;11.350;2023-07-13T01:53:06;0.20;;;0.20;;
595;SDS011;19946;49.306;11.350;2023-07-13T01:56:06;0.30;;;0.30;;
595;SDS011;19946;49.306;11.350;2023-07-13T01:59:07;0.37;;;0.37;;
595;SDS011;19946;49.306;11.350;2023-07-13T02:02:08;0.40;;;0.40;;
595;SDS011;19946;49.306;11.350;2023-07-13T02:05:09;0.40;;;0.40;;
595;SDS011;19946;49.306;11.350;2023-07-13T02:08:09;0.40;;;0.40;;
595;SDS011;19946;49.306;11.350;2023-07-13T02:11:10;0.40;;;0.40;;
595;SDS011;19946;49.306;11.350;2023-07-13T02:14:10;0.20;;;0.20;;
595;SDS011;19946;49.306;11.350;2023-07-13T02:17:10;0.20;;;0.20;;
595;SDS011;19946;49.306;11.350;2023-07-13T02:20:11;0.20;;;0.20;;
595;SDS011;19946;49.306;11.350;2023-07-13T02:23:12;0.30;;;0.30;;
595;SDS011;19946;49.306;11.350;2023-07-13T02:26:12;0.40;;;0.40;;
595;SDS011;19946;49.306;11.350;2023-07-13T02:29:13;0.37;;;0.37;;
595;SDS011;19946;49.306;11.350;2023-07-13T02:32:14;0.30;;;0.30;;
595;SDS011;19946;49.306;11.350;2023-07-13T02:35:14;0.50;;;0.50;;
595;SDS011;19946;49.306;11.350;2023-07-13T02:38:14;0.50;;;0.50;;
595;SDS011;19946;49.306;11.350;2023-07-13T02:41:15;0.53;;;0.53;;
595;SDS011;19946;49.306;11.350;2023-07-13T02:44:15;0.50;;;0.50;;
595;SDS011;19946;49.306;11.350;2023-07-13T02:47:16;0.50;;;0.50;;
595;SDS011;19946;49.306;11.350;2023-07-13T02:50:16;0.50;;;0.50;;
595;SDS011;19946;49.306;11.350;2023-07-13T02:53:17;0.50;;;0.50;;
595;SDS011;19946;49.306;11.350;2023-07-13T02:56:18;0.40;;;0.40;;
595;SDS011;19946;49.306;11.350;2023-07-13T02:59:22;0.30;;;0.30;;
595;SDS011;19946;49.306;11.350;2023-07-13T03:02:23;0.30;;;0.30;;
595;SDS011;19946;49.306;11.350;2023-07-13T03:05:24;0.30;;;0.30;;
595;SDS011;19946;49.306;11.350;2023-07-13T03:08:25;0.40;;;0.40;;
595;SDS011;19946;49.306;11.350;2023-07-13T03:11:28;0.40;;;0.40;;
595;SDS011;19946;49.306;11.350;2023-07-13T03:14:37;0.50;;;0.50;;
595;SDS011;19946;49.306;11.350;2023-07-13T03:17:40;0.50;;;0.50;;
595;SDS011;19946;49.306;11.350;2023-07-13T03:20:42;0.40;;;0.40;;
595;SDS011;19946;49.306;11.350;2023-07-13T03:23:42;0.30;;;0.30;;
595;SDS011;19946;49.306;11.350;2023-07-13T03:26:43;0.30;;;0.30;;
595;SDS011;19946;49.306;11.350;2023-07-13T03:29:44;0.30;;;0.30;;
595;SDS011;19946;49.306;11.350;2023-07-13T03:32:46;0.30;;;0.30;;
595;SDS011;19946;49.306;11.350;2023-07-13T03:35:46;0.30;;;0.30;;
595;SDS011;19946;49.306;11.350;2023-07-13T03:38:47;0.20;;;0.20;;
595;SDS011;19946;49.306;11.350;2023-07-13T03:41:51;0.20;;;0.20;;
595;SDS011;19946;49.306;11.350;2023-07-13T03:44:52;0.20;;;0.20;;
595;SDS011;19946;49.306;11.350;2023-07-13T03:47:53;0.20;;;0.20;;
595;SDS011;19946;49.306;11.350;2023-07-13T03:50:58;0.20;;;0.20;;
595;SDS011;19946;49.306;11.350;2023-07-13T03:53:58;0.20;;;0.20;;
595;SDS011;19946;49.306;11.350;2023-07-13T03:56:59;0.30;;;0.30;;
595;SDS011;19946;49.306;11.350;2023-07-13T04:00:00;0.30;;;0.30;;
595;SDS011;19946;49.306;11.350;2023-07-13T04:03:00;0.40;;;0.40;;
595;SDS011;19946;49.306;11.350;2023-07-13T04:06:01;0.30;;;0.30;;
595;SDS011;19946;49.306;11.350;2023-07-13T04:09:03;0.30;;;0.30;;
595;SDS011;19946;49.306;11.350;2023-07-13T04:12:08;0.30;;;0.30;;
595;SDS011;19946;49.306;11.350;2023-07-13T04:15:08;0.30;;;0.30;;
595;SDS011;19946;49.306;11.350;2023-07-13T04:18:09;0.30;;;0.30;;
595;SDS011;19946;49.306;11.350;2023-07-13T04:21:09;0.30;;;0.30;;
595;SDS011;19946;49.306;11.350;2023-07-13T04:24:10;0.30;;;0.30;;
595;SDS011;19946;49.306;11.350;2023-07-13T04:27:10;0.40;;;0.40;;
595;SDS011;19946;49.306;11.350;2023-07-13T04:30:10;0.40;;;0.40;;
595;SDS011;19946;49.306;11.350;2023-07-13T04:33:11;0.40;;;0.40;;
595;SDS011;19946;49.306;11.350;2023-07-13T04:36:11;0.40;;;0.40;;
595;SDS011;19946;49.306;11.350;2023-07-13T04:39:12;0.40;;;0.40;;
595;SDS011;19946;49.306;11.350;2023-07-13T04:42:12;0.40;;;0.40;;
595;SDS011;19946;49.306;11.350;2023-07-13T04:45:15;0.30;;;0.30;;
595;SDS011;19946;49.306;11.350;2023-07-13T04:48:17;0.30;;;0.30;;
595;SDS011;19946;49.306;11.350;2023-07-13T04:51:18;0.30;;;0.30;;
595;SDS011;19946;49.306;11.350;2023-07-13T04:54:18;0.30;;;0.30;;
595;SDS011;19946;49.306;11.350;2023-07-13T04:57:19;0.30;;;0.30;;
595;SDS011;19946;49.306;11.350;2023-07-13T05:00:19;0.30;;;0.30;;
595;SDS011;19946;49.306;11.350;2023-07-13T05:03:19;0.50;;;0.50;;
595;SDS011;19946;49.306;11.350;2023-07-13T05:06:20;0.50;;;0.50;;
595;SDS011;19946;49.306;11.350;2023-07-13T05:09:21;0.60;;;0.60;;
595;SDS011;19946;49.306;11.350;2023-07-13T05:12:21;0.80;;;0.80;;
595;SDS011;19946;49.306;11.350;2023-07-13T05:15:22;0.70;;;0.70;;
595;SDS011;19946;49.306;11.350;2023-07-13T05:18:22;0.70;;;0.70;;
595;SDS011;19946;49.306;11.350;2023-07-13T05:21:23;0.90;;;0.90;;
595;SDS011;19946;49.306;11.350;2023-07-13T05:24:23;0.90;;;0.90;;
595;SDS011;19946;49.306;11.350;2023-07-13T05:27:24;1.03;;;1.03;;
595;SDS011;19946;49.306;11.350;2023-07-13T05:30:24;0.90;;;0.90;;
595;SDS011;19946;49.306;11.350;2023-07-13T05:33:25;0.90;;;0.90;;
595;SDS011;19946;49.306;11.350;2023-07-13T05:36:27;0.70;;;0.70;;
595;SDS011;19946;49.306;11.350;2023-07-13T05:39:27;0.80;;;0.80;;
595;SDS011;19946;49.306;11.350;2023-07-13T05:42:28;0.90;;;0.90;;
595;SDS011;19946;49.306;11.350;2023-07-13T05:45:28;0.80;;;0.80;;
595;SDS011;19946;49.306;11.350;2023-07-13T05:48:28;0.90;;;0.90;;
595;SDS011;19946;49.306;11.350;2023-07-13T05:51:29;0.87;;;0.87;;
595;SDS011;19946;49.306;11.350;2023-07-13T05:54:29;0.80;;;0.80;;
595;SDS011;19946;49.306;11.350;2023-07-13T05:57:30;0.80;;;0.80;;
595;SDS011;19946;49.306;11.350;2023-07-13T06:00:31;0.90;;;0.90;;
595;SDS011;19946;49.306;11.350;2023-07-13T06:03:32;0.80;;;0.80;;
595;SDS011;19946;49.306;11.350;2023-07-13T06:06:32;0.80;;;0.80;;
595;SDS011;19946;49.306;11.350;2023-07-13T06:09:33;0.70;;;0.70;;
595;SDS011;19946;49.306;11.350;2023-07-13T06:12:33;0.70;;;0.70;;
595;SDS011;19946;49.306;11.350;2023-07-13T06:15:34;0.70;;;0.70;;
595;SDS011;19946;49.306;11.350;2023-07-13T06:18:34;0.80;;;0.80;;
595;SDS011;19946;49.306;11.350;2023-07-13T06:21:36;0.70;;;0.70;;
595;SDS011;19946;49.306;11.350;2023-07-13T06:24:36;0.80;;;0.80;;
595;SDS011;19946;49.306;11.350;2023-07-13T06:27:36;0.70;;;0.70;;
595;SDS011;19946;49.306;11.350;2023-07-13T06:30:39;0.70;;;0.70;;
595;SDS011;19946;49.306;11.350;2023-07-13T06:33:40;0.60;;;0.60;;
595;SDS011;19946;49.306;11.350;2023-07-13T06:36:40;0.70;;;0.70;;
595;SDS011;19946;49.306;11.350;2023-07-13T06:39:41;0.70;;;0.70;;
595;SDS011;19946;49.306;11.350;2023-07-13T06:42:41;0.70;;;0.70;;
595;SDS011;19946;49.306;11.350;2023-07-13T06:45:43;0.70;;;0.70;;
595;SDS011;19946;49.306;11.350;2023-07-13T06:48:49;0.60;;;0.60;;
595;SDS011;19946;49.306;11.350;2023-07-13T06:51:50;0.70;;;0.70;;
595;SDS011;19946;49.306;11.350;2023-07-13T06:54:50;0.70;;;0.70;;
595;SDS011;19946;49.306;11.350;2023-07-13T06:57:50;0.60;;;0.60;;
595;SDS011;19946;49.306;11.350;2023-07-13T07:00:51;0.50;;;0.50;;
595;SDS011;19946;49.306;11.350;2023-07-13T07:03:53;0.60;;;0.60;;
595;SDS011;19946;49.306;11.350;2023-07-13T07:06:53;0.60;;;0.60;;
595;SDS011;19946;49.306;11.350;2023-07-13T07:09:54;0.60;;;0.60;;
595;SDS011;19946;49.306;11.350;2023-07-13T07:12:54;0.50;;;0.50;;
595;SDS011;19946;49.306;11.350;2023-07-13T07:15:55;0.50;;;0.50;;
595;SDS011;19946;49.306;11.350;2023-07-13T07:18:55;0.50;;;0.50;;
595;SDS011;19946;49.306;11.350;2023-07-13T07:21:55;0.60;;;0.60;;
595;SDS011;19946;49.306;11.350;2023-07-13T07:24:56;0.50;;;0.50;;
595;SDS011;19946;49.306;11.350;2023-07-13T07:27:57;0.50;;;0.50;;
595;SDS011;19946;49.306;11.350;2023-07-13T07:30:59;0.50;;;0.50;;
595;SDS011;19946;49.306;11.350;2023-07-13T07:33:59;0.60;;;0.60;;
595;SDS011;19946;49.306;11.350;2023-07-13T07:37:00;0.50;;;0.50;;
595;SDS011;19946;49.306;11.350;2023-07-13T07:40:01;0.60;;;0.60;;
595;SDS011;19946;49.306;11.350;2023-07-13T07:43:01;0.50;;;0.50;;
595;SDS011;19946;49.306;11.350;2023-07-13T07:46:02;0.50;;;0.50;;
595;SDS011;19946;49.306;11.350;2023-07-13T07:49:02;0.60;;;0.60;;
595;SDS011;19946;49.306;11.350;2023-07-13T07:52:03;0.60;;;0.60;;
595;SDS011;19946;49.306;11.350;2023-07-13T07:55:04;0.57;;;0.57;;
595;SDS011;19946;49.306;11.350;2023-07-13T07:58:05;0.50;;;0.50;;
595;SDS011;19946;49.306;11.350;2023-07-13T08:01:06;0.40;;;0.40;;
595;SDS011;19946;49.306;11.350;2023-07-13T08:04:07;0.40;;;0.40;;
595;SDS011;19946;49.306;11.350;2023-07-13T08:07:07;0.50;;;0.50;;
595;SDS011;19946;49.306;11.350;2023-07-13T08:10:08;0.43;;;0.43;;
595;SDS011;19946;49.306;11.350;2023-07-13T08:13:08;0.50;;;0.50;;
595;SDS011;19946;49.306;11.350;2023-07-13T08:16:08;0.50;;;0.50;;
595;SDS011;19946;49.306;11.350;2023-07-13T08:19:09;0.43;;;0.43;;
595;SDS011;19946;49.306;11.350;2023-07-13T08:22:09;0.50;;;0.50;;
595;SDS011;19946;49.306;11.350;2023-07-13T08:25:09;0.50;;;0.50;;
595;SDS011;19946;49.306;11.350;2023-07-13T08:28:10;0.50;;;0.50;;
595;SDS011;19946;49.306;11.350;2023-07-13T08:31:10;0.50;;;0.50;;
595;SDS011;19946;49.306;11.350;2023-07-13T08:34:10;0.63;;;0.63;;
595;SDS011;19946;49.306;11.350;2023-07-13T08:37:11;0.43;;;0.43;;
595;SDS011;19946;49.306;11.350;2023-07-13T08:40:11;0.67;;;0.67;;
595;SDS011;19946;49.306;11.350;2023-07-13T08:43:14;0.53;;;0.53;;
595;SDS011;19946;49.306;11.350;2023-07-13T08:49:32;0.50;;;0.50;;
595;SDS011;19946;49.306;11.350;2023-07-13T08:52:38;0.40;;;0.40;;
595;SDS011;19946;49.306;11.350;2023-07-13T08:55:40;0.40;;;0.40;;
595;SDS011;19946;49.306;11.350;2023-07-13T08:58:41;0.47;;;0.47;;
595;SDS011;19946;49.306;11.350;2023-07-13T09:01:52;0.40;;;0.40;;
595;SDS011;19946;49.306;11.350;2023-07-13T09:05:08;0.40;;;0.40;;
595;SDS011;19946;49.306;11.350;2023-07-13T09:08:27;0.40;;;0.40;;
595;SDS011;19946;49.306;11.350;2023-07-13T09:11:39;0.30;;;0.30;;
595;SDS011;19946;49.306;11.350;2023-07-13T09:14:47;0.30;;;0.30;;
595;SDS011;19946;49.306;11.350;2023-07-13T09:17:51;0.30;;;0.30;;
595;SDS011;19946;49.306;11.350;2023-07-13T09:20:57;0.30;;;0.30;;
595;SDS011;19946;49.306;11.350;2023-07-13T09:27:40;0.30;;;0.30;;
595;SDS011;19946;49.306;11.350;2023-07-13T09:31:00;0.20;;;0.20;;
595;SDS011;19946;49.306;11.350;2023-07-13T09:34:01;0.20;;;0.20;;
595;SDS011;19946;49.306;11.350;2023-07-13T09:37:02;0.30;;;0.30;;
595;SDS011;19946;49.306;11.350;2023-07-13T09:40:02;0.27;;;0.27;;
595;SDS011;19946;49.306;11.350;2023-07-13T09:43:05;0.20;;;0.20;;
595;SDS011;19946;49.306;11.350;2023-07-13T09:46:20;0.30;;;0.30;;
595;SDS011;19946;49.306;11.350;2023-07-13T09:49:35;0.20;;;0.20;;
595;SDS011;19946;49.306;11.350;2023-07-13T09:52:43;0.20;;;0.20;;
595;SDS011;19946;49.306;11.350;2023-07-13T09:55:46;0.10;;;0.10;;
595;SDS011;19946;49.306;11.350;2023-07-13T09:58:48;0.20;;;0.20;;
595;SDS011;19946;49.306;11.350;2023-07-13T10:01:49;0.17;;;0.17;;
595;SDS011;19946;49.306;11.350;2023-07-13T10:04:55;0.20;;;0.20;;
595;SDS011;19946;49.306;11.350;2023-07-13T10:07:58;0.20;;;0.20;;
595;SDS011;19946;49.306;11.350;2023-07-13T10:10:59;0.23;;;0.23;;
595;SDS011;19946;49.306;11.350;2023-07-13T10:14:09;0.20;;;0.20;;
595;SDS011;19946;49.306;11.350;2023-07-13T10:17:13;0.23;;;0.23;;
595;SDS011;19946;49.306;11.350;2023-07-13T10:20:14;0.20;;;0.20;;
595;SDS011;19946;49.306;11.350;2023-07-13T10:23:16;0.23;;;0.23;;
595;SDS011;19946;49.306;11.350;2023-07-13T10:26:29;0.20;;;0.20;;
595;SDS011;19946;49.306;11.350;2023-07-13T10:33:20;0.33;;;0.33;;
595;SDS011;19946;49.306;11.350;2023-07-13T10:39:31;0.10;;;0.10;;
595;SDS011;19946;49.306;11.350;2023-07-13T10:42:36;0.10;;;0.10;;
595;SDS011;19946;49.306;11.350;2023-07-13T10:45:41;0.10;;;0.10;;
595;SDS011;19946;49.306;11.350;2023-07-13T10:48:45;0.10;;;0.10;;
595;SDS011;19946;49.306;11.350;2023-07-13T10:51:52;0.17;;;0.17;;
595;SDS011;19946;49.306;11.350;2023-07-13T10:54:53;0.50;;;0.50;;
595;SDS011;19946;49.306;11.350;2023-07-13T10:57:54;0.17;;;0.17;;
595;SDS011;19946;49.306;11.350;2023-07-13T11:04:00;0.20;;;0.20;;
595;SDS011;19946;49.306;11.350;2023-07-13T11:07:10;0.40;;;0.30;;
595;SDS011;19946;49.306;11.350;2023-07-13T11:13:59;0.20;;;0.20;;
595;SDS011;19946;49.306;11.350;2023-07-13T11:20:31;0.50;;;0.40;;
595;SDS011;19946;49.306;11.350;2023-07-13T11:23:34;0.27;;;0.27;;
595;SDS011;19946;49.306;11.350;2023-07-13T11:29:48;0.10;;;0.10;;
595;SDS011;19946;49.306;11.350;2023-07-13T11:33:07;0.17;;;0.17;;
595;SDS011;19946;49.306;11.350;2023-07-13T11:36:14;0.20;;;0.20;;
595;SDS011;19946;49.306;11.350;2023-07-13T11:39:20;0.17;;;0.17;;
595;SDS011;19946;49.306;11.350;2023-07-13T11:42:30;0.10;;;0.10;;
595;SDS011;19946;49.306;11.350;2023-07-13T11:45:31;0.10;;;0.10;;
595;SDS011;19946;49.306;11.350;2023-07-13T11:48:31;0.10;;;0.10;;
595;SDS011;19946;49.306;11.350;2023-07-13T11:51:33;0.10;;;0.10;;
595;SDS011;19946;49.306;11.350;2023-07-13T11:54:43;0.10;;;0.10;;
595;SDS011;19946;49.306;11.350;2023-07-13T11:57:51;0.20;;;0.20;;
595;SDS011;19946;49.306;11.350;2023-07-13T12:00:59;0.33;;;0.23;;
595;SDS011;19946;49.306;11.350;2023-07-13T12:04:04;0.13;;;0.13;;
595;SDS011;19946;49.306;11.350;2023-07-13T12:07:07;0.13;;;0.13;;
595;SDS011;19946;49.306;11.350;2023-07-13T12:13:19;0.10;;;0.10;;
595;SDS011;19946;49.306;11.350;2023-07-13T12:16:30;0.30;;;0.30;;
595;SDS011;19946;49.306;11.350;2023-07-13T12:19:32;0.13;;;0.13;;
595;SDS011;19946;49.306;11.350;2023-07-13T12:22:33;0.23;;;0.20;;
595;SDS011;19946;49.306;11.350;2023-07-13T12:25:34;0.10;;;0.10;;
595;SDS011;19946;49.306;11.350;2023-07-13T12:28:35;0.10;;;0.10;;
595;SDS011;19946;49.306;11.350;2023-07-13T12:31:41;0.10;;;0.10;;
595;SDS011;19946;49.306;11.350;2023-07-13T12:34:51;0.10;;;0.10;;
595;SDS011;19946;49.306;11.350;2023-07-13T12:38:04;0.13;;;0.13;;
595;SDS011;19946;49.306;11.350;2023-07-13T12:41:10;0.17;;;0.13;;
595;SDS011;19946;49.306;11.350;2023-07-13T12:44:11;0.07;;;0.07;;
595;SDS011;19946;49.306;11.350;2023-07-13T12:47:16;0.10;;;0.10;;
595;SDS011;19946;49.306;11.350;2023-07-13T12:50:19;0.10;;;0.10;;
595;SDS011;19946;49.306;11.350;2023-07-13T12:53:28;0.10;;;0.10;;
595;SDS011;19946;49.306;11.350;2023-07-13T12:56:33;0.10;;;0.10;;
595;SDS011;19946;49.306;11.350;2023-07-13T12:59:34;0.10;;;0.10;;
595;SDS011;19946;49.306;11.350;2023-07-13T13:02:36;0.10;;;0.10;;
595;SDS011;19946;49.306;11.350;2023-07-13T13:05:36;0.10;;;0.10;;
595;SDS011;19946;49.306;11.350;2023-07-13T13:08:37;0.10;;;0.10;;
595;SDS011;19946;49.306;11.350;2023-07-13T13:11:41;0.10;;;0.10;;
595;SDS011;19946;49.306;11.350;2023-07-13T13:14:42;0.10;;;0.10;;
595;SDS011;19946;49.306;11.350;2023-07-13T13:17:42;0.20;;;0.20;;
595;SDS011;19946;49.306;11.350;2023-07-13T13:20:43;0.00;;;0.00;;
595;SDS011;19946;49.306;11.350;2023-07-13T13:23:43;0.10;;;0.10;;
595;SDS011;19946;49.306;11.350;2023-07-13T13:26:44;0.10;;;0.10;;
595;SDS011;19946;49.306;11.350;2023-07-13T13:29:45;0.10;;;0.10;;
595;SDS011;19946;49.306;11.350;2023-07-13T13:32:47;0.07;;;0.07;;
595;SDS011;19946;49.306;11.350;2023-07-13T13:35:48;0.10;;;0.10;;
595;SDS011;19946;49.306;11.350;2023-07-13T13:38:49;0.10;;;0.10;;
595;SDS011;19946;49.306;11.350;2023-07-13T13:41:51;0.20;;;0.10;;
595;SDS011;19946;49.306;11.350;2023-07-13T13:44:52;0.10;;;0.10;;
595;SDS011;19946;49.306;11.350;2023-07-13T13:47:53;0.20;;;0.20;;
595;SDS011;19946;49.306;11.350;2023-07-13T13:50:54;0.10;;;0.10;;
595;SDS011;19946;49.306;11.350;2023-07-13T13:53:55;0.30;;;0.20;;
595;SDS011;19946;49.306;11.350;2023-07-13T13:56:55;0.20;;;0.20;;
595;SDS011;19946;49.306;11.350;2023-07-13T13:59:55;0.20;;;0.20;;
595;SDS011;19946;49.306;11.350;2023-07-13T14:02:56;0.10;;;0.10;;
595;SDS011;19946;49.306;11.350;2023-07-13T14:05:57;0.00;;;0.00;;
595;SDS011;19946;49.306;11.350;2023-07-13T14:08:57;0.10;;;0.10;;
595;SDS011;19946;49.306;11.350;2023-07-13T14:11:59;0.10;;;0.10;;
595;SDS011;19946;49.306;11.350;2023-07-13T14:15:00;0.10;;;0.10;;
595;SDS011;19946;49.306;11.350;2023-07-13T14:18:00;0.10;;;0.10;;
595;SDS011;19946;49.306;11.350;2023-07-13T14:21:00;0.10;;;0.10;;
595;SDS011;19946;49.306;11.350;2023-07-13T14:24:01;0.10;;;0.10;;
595;SDS011;19946;49.306;11.350;2023-07-13T14:27:02;0.00;;;0.00;;
595;SDS011;19946;49.306;11.350;2023-07-13T14:30:02;0.00;;;0.00;;
595;SDS011;19946;49.306;11.350;2023-07-13T14:33:07;0.10;;;0.10;;
595;SDS011;19946;49.306;11.350;2023-07-13T14:36:29;0.10;;;0.10;;
595;SDS011;19946;49.306;11.350;2023-07-13T14:39:31;0.10;;;0.10;;
595;SDS011;19946;49.306;11.350;2023-07-13T14:42:32;0.43;;;0.20;;
595;SDS011;19946;49.306;11.350;2023-07-13T14:45:32;0.10;;;0.10;;
595;SDS011;19946;49.306;11.350;2023-07-13T14:48:32;0.10;;;0.10;;
595;SDS011;19946;49.306;11.350;2023-07-13T14:51:33;0.10;;;0.10;;
595;SDS011;19946;49.306;11.350;2023-07-13T14:54:34;0.10;;;0.10;;
595;SDS011;19946;49.306;11.350;2023-07-13T14:57:34;0.10;;;0.10;;
595;SDS011;19946;49.306;11.350;2023-07-13T15:00:35;0.10;;;0.10;;
595;SDS011;19946;49.306;11.350;2023-07-13T15:03:35;0.10;;;0.10;;
595;SDS011;19946;49.306;11.350;2023-07-13T15:09:57;0.17;;;0.10;;
595;SDS011;19946;49.306;11.350;2023-07-13T15:13:00;0.10;;;0.10;;
595;SDS011;19946;49.306;11.350;2023-07-13T15:16:22;0.07;;;0.07;;
595;SDS011;19946;49.306;11.350;2023-07-13T15:19:24;0.20;;;0.20;;
595;SDS011;19946;49.306;11.350;2023-07-13T15:22:26;0.40;;;0.30;;
595;SDS011;19946;49.306;11.350;2023-07-13T15:25:27;0.00;;;0.00;;
595;SDS011;19946;49.306;11.350;2023-07-13T15:28:30;0.10;;;0.10;;
595;SDS011;19946;49.306;11.350;2023-07-13T15:31:30;0.10;;;0.10;;
595;SDS011;19946;49.306;11.350;2023-07-13T15:34:32;0.00;;;0.00;;
595;SDS011;19946;49.306;11.350;2023-07-13T15:37:33;0.03;;;0.03;;
595;SDS011;19946;49.306;11.350;2023-07-13T15:40:33;0.07;;;0.07;;
595;SDS011;19946;49.306;11.350;2023-07-13T15:43:33;0.03;;;0.03;;
595;SDS011;19946;49.306;11.350;2023-07-13T15:46:34;0.07;;;0.07;;
595;SDS011;19946;49.306;11.350;2023-07-13T15:49:34;0.07;;;0.07;;
595;SDS011;19946;49.306;11.350;2023-07-13T15:52:34;0.00;;;0.00;;
595;SDS011;19946;49.306;11.350;2023-07-13T15:55:37;0.07;;;0.07;;
595;SDS011;19946;49.306;11.350;2023-07-13T15:58:39;0.00;;;0.00;;
595;SDS011;19946;49.306;11.350;2023-07-13T16:01:39;0.00;;;0.00;;
595;SDS011;19946;49.306;11.350;2023-07-13T16:04:42;0.00;;;0.00;;
595;SDS011;19946;49.306;11.350;2023-07-13T16:07:46;0.00;;;0.00;;
595;SDS011;19946;49.306;11.350;2023-07-13T16:10:48;0.03;;;0.03;;
595;SDS011;19946;49.306;11.350;2023-07-13T16:13:48;0.00;;;0.00;;
595;SDS011;19946;49.306;11.350;2023-07-13T16:16:54;0.07;;;0.07;;
595;SDS011;19946;49.306;11.350;2023-07-13T16:19:55;0.10;;;0.10;;
595;SDS011;19946;49.306;11.350;2023-07-13T16:22:56;0.10;;;0.10;;
595;SDS011;19946;49.306;11.350;2023-07-13T16:25:56;0.13;;;0.13;;
595;SDS011;19946;49.306;11.350;2023-07-13T16:28:57;0.13;;;0.13;;
595;SDS011;19946;49.306;11.350;2023-07-13T16:32:11;0.10;;;0.10;;
595;SDS011;19946;49.306;11.350;2023-07-13T16:35:13;0.10;;;0.10;;
595;SDS011;19946;49.306;11.350;2023-07-13T16:38:17;0.10;;;0.10;;
595;SDS011;19946;49.306;11.350;2023-07-13T16:41:20;0.07;;;0.07;;
595;SDS011;19946;49.306;11.350;2023-07-13T16:44:20;0.10;;;0.10;;
595;SDS011;19946;49.306;11.350;2023-07-13T16:47:22;0.10;;;0.10;;
595;SDS011;19946;49.306;11.350;2023-07-13T16:50:26;0.07;;;0.07;;
595;SDS011;19946;49.306;11.350;2023-07-13T16:53:30;0.10;;;0.10;;
595;SDS011;19946;49.306;11.350;2023-07-13T16:56:33;0.10;;;0.10;;
595;SDS011;19946;49.306;11.350;2023-07-13T16:59:34;0.13;;;0.13;;
595;SDS011;19946;49.306;11.350;2023-07-13T17:02:36;0.10;;;0.10;;
595;SDS011;19946;49.306;11.350;2023-07-13T17:05:39;0.10;;;0.10;;
595;SDS011;19946;49.306;11.350;2023-07-13T17:08:40;0.10;;;0.10;;
595;SDS011;19946;49.306;11.350;2023-07-13T17:11:41;0.00;;;0.00;;
595;SDS011;19946;49.306;11.350;2023-07-13T17:14:45;0.10;;;0.10;;
595;SDS011;19946;49.306;11.350;2023-07-13T17:17:48;0.00;;;0.00;;
595;SDS011;19946;49.306;11.350;2023-07-13T17:20:51;0.00;;;0.00;;
595;SDS011;19946;49.306;11.350;2023-07-13T17:23:52;0.10;;;0.10;;
595;SDS011;19946;49.306;11.350;2023-07-13T17:26:52;0.10;;;0.10;;
595;SDS011;19946;49.306;11.350;2023-07-13T17:29:54;0.07;;;0.07;;
595;SDS011;19946;49.306;11.350;2023-07-13T17:32:55;0.10;;;0.10;;
595;SDS011;19946;49.306;11.350;2023-07-13T17:35:56;0.07;;;0.07;;
595;SDS011;19946;49.306;11.350;2023-07-13T17:38:57;0.10;;;0.10;;
595;SDS011;19946;49.306;11.350;2023-07-13T17:41:57;0.10;;;0.10;;
595;SDS011;19946;49.306;11.350;2023-07-13T17:44:58;0.10;;;0.10;;
595;SDS011;19946;49.306;11.350;2023-07-13T17:47:58;0.00;;;0.00;;
595;SDS011;19946;49.306;11.350;2023-07-13T17:51:01;0.03;;;0.03;;
595;SDS011;19946;49.306;11.350;2023-07-13T17:54:02;0.10;;;0.10;;
595;SDS011;19946;49.306;11.350;2023-07-13T17:57:02;0.03;;;0.03;;
595;SDS011;19946;49.306;11.350;2023-07-13T18:00:03;0.10;;;0.10;;
595;SDS011;19946;49.306;11.350;2023-07-13T18:03:24;0.00;;;0.00;;
595;SDS011;19946;49.306;11.350;2023-07-13T18:06:32;0.20;;;0.20;;
595;SDS011;19946;49.306;11.350;2023-07-13T18:09:35;0.00;;;0.00;;
595;SDS011;19946;49.306;11.350;2023-07-13T18:12:36;0.00;;;0.00;;
595;SDS011;19946;49.306;11.350;2023-07-13T18:15:36;0.00;;;0.00;;
595;SDS011;19946;49.306;11.350;2023-07-13T18:18:38;0.03;;;0.03;;
595;SDS011;19946;49.306;11.350;2023-07-13T18:21:39;0.00;;;0.00;;
595;SDS011;19946;49.306;11.350;2023-07-13T18:24:39;0.07;;;0.07;;
595;SDS011;19946;49.306;11.350;2023-07-13T18:27:39;0.00;;;0.00;;
595;SDS011;19946;49.306;11.350;2023-07-13T18:30:40;0.00;;;0.00;;
595;SDS011;19946;49.306;11.350;2023-07-13T18:33:42;0.00;;;0.00;;
595;SDS011;19946;49.306;11.350;2023-07-13T18:36:46;0.00;;;0.00;;
595;SDS011;19946;49.306;11.350;2023-07-13T18:39:50;0.00;;;0.00;;
595;SDS011;19946;49.306;11.350;2023-07-13T18:42:52;0.00;;;0.00;;
595;SDS011;19946;49.306;11.350;2023-07-13T18:45:58;0.00;;;0.00;;
595;SDS011;19946;49.306;11.350;2023-07-13T18:49:00;0.00;;;0.00;;
595;SDS011;19946;49.306;11.350;2023-07-13T18:52:01;0.10;;;0.10;;
595;SDS011;19946;49.306;11.350;2023-07-13T18:55:08;0.03;;;0.03;;
595;SDS011;19946;49.306;11.350;2023-07-13T18:58:13;0.00;;;0.00;;
595;SDS011;19946;49.306;11.350;2023-07-13T19:01:16;0.00;;;0.00;;
595;SDS011;19946;49.306;11.350;2023-07-13T19:04:29;0.00;;;0.00;;
595;SDS011;19946;49.306;11.350;2023-07-13T19:07:31;0.00;;;0.00;;